Air Navigation Services of Czech Republic
Airport: LKNA Updated:  18.07.2019 18:00:27  UTC
 METAR LKNA 18.07. 18:00 ...
METAR LKNA 181800Z 12003KT 080V190 CAVOK 19/14 Q1013 NOSIG RMK BLU BLU=
 TAF LKNA 18.07. 17:00 ...
TAF LKNA 181700Z 1818/1918 17006KT CAVOK      PROB30 TEMPO 1818/1820 25014KT SHRA SCT040TCU      PROB40 TEMPO 1910/1918 27012G22KT 7000 SHRA SCT040TCU=